X  Blizu METAR Podaci o vazduhoplovstvu     EDDK Cologne Bonn Airport
Temperatura
18°C Temperatura
12°C Tačka Rose
68% Vlaga



Vetar
17 MPS
27 KM/S
8 M/S
15 Čvorovi



310°
SZ
Trenutna situacija

Delimično oblačno Delimično oblačno
Vazdušni pritisak 1005.76 (hPa) - 29.7 (inHg)
Vidljivost 6 (Milje) - 9.7 (km)
Aerodrom
Aerodromski kod. EDDK

Lokacija: Cologne Bonn Airport
Udaljenost: 56 (mi)

Metar:
EDDK 301220Z AUTO 31015KT 270V330 9999 FEW037 18/12 Q1006 NOSIG

Vreme: 2024-05-30 14:20 CEST